sensor_id;sensor_type;location;lat;lon;timestamp;pressure;altitude;pressure_sealevel;temperature;humidity
15382;BME280;7789;51.364;12.358;2023-01-08T00:05:11;99677.38;;;9.63;94.80
15382;BME280;7789;51.364;12.358;2023-01-08T00:10:35;99682.44;;;9.64;93.94
15382;BME280;7789;51.364;12.358;2023-01-08T00:15:52;99674.47;;;9.66;94.37
15382;BME280;7789;51.364;12.358;2023-01-08T00:21:02;99672.84;;;9.65;93.94
15382;BME280;7789;51.364;12.358;2023-01-08T00:26:09;99663.34;;;9.64;94.23
15382;BME280;7789;51.364;12.358;2023-01-08T00:31:16;99651.97;;;9.65;93.56
15382;BME280;7789;51.364;12.358;2023-01-08T00:36:31;99650.84;;;9.67;93.65
15382;BME280;7789;51.364;12.358;2023-01-08T00:41:47;99653.03;;;9.72;93.85
15382;BME280;7789;51.364;12.358;2023-01-08T00:46:55;99640.16;;;9.80;93.21
15382;BME280;7789;51.364;12.358;2023-01-08T00:52:04;99635.16;;;9.86;92.63
15382;BME280;7789;51.364;12.358;2023-01-08T00:57:31;99625.00;;;9.93;92.38
15382;BME280;7789;51.364;12.358;2023-01-08T01:02:44;99616.34;;;9.92;92.19
15382;BME280;7789;51.364;12.358;2023-01-08T01:07:50;99620.44;;;9.95;92.42
15382;BME280;7789;51.364;12.358;2023-01-08T01:13:32;99607.00;;;9.99;91.89
15382;BME280;7789;51.364;12.358;2023-01-08T01:18:48;99602.22;;;10.04;92.20
15382;BME280;7789;51.364;12.358;2023-01-08T01:23:55;99608.63;;;10.10;91.24
15382;BME280;7789;51.364;12.358;2023-01-08T01:29:02;99609.31;;;10.12;91.77
15382;BME280;7789;51.364;12.358;2023-01-08T01:34:09;99600.69;;;10.11;91.81
15382;BME280;7789;51.364;12.358;2023-01-08T01:39:14;99601.94;;;10.07;91.11
15382;BME280;7789;51.364;12.358;2023-01-08T01:44:39;99598.34;;;9.99;90.98
15382;BME280;7789;51.364;12.358;2023-01-08T01:49:52;99611.25;;;9.91;91.36
15382;BME280;7789;51.364;12.358;2023-01-08T01:54:59;99603.16;;;9.84;91.20
15382;BME280;7789;51.364;12.358;2023-01-08T02:00:13;99593.16;;;9.80;91.56
15382;BME280;7789;51.364;12.358;2023-01-08T02:05:21;99599.34;;;9.79;91.51
15382;BME280;7789;51.364;12.358;2023-01-08T02:10:33;99591.66;;;9.77;91.12
15382;BME280;7789;51.364;12.358;2023-01-08T02:15:48;99594.38;;;9.76;91.28
15382;BME280;7789;51.364;12.358;2023-01-08T02:21:12;99583.66;;;9.69;91.53
15382;BME280;7789;51.364;12.358;2023-01-08T02:26:32;99572.28;;;9.61;91.54
15382;BME280;7789;51.364;12.358;2023-01-08T02:31:52;99578.75;;;9.57;91.88
15382;BME280;7789;51.364;12.358;2023-01-08T02:37:07;99565.44;;;9.50;91.92
15382;BME280;7789;51.364;12.358;2023-01-08T02:42:24;99552.81;;;9.46;92.09
15382;BME280;7789;51.364;12.358;2023-01-08T02:47:38;99554.03;;;9.42;92.08
15382;BME280;7789;51.364;12.358;2023-01-08T02:52:50;99530.31;;;9.45;91.60
15382;BME280;7789;51.364;12.358;2023-01-08T02:58:10;99526.75;;;9.46;91.70
15382;BME280;7789;51.364;12.358;2023-01-08T03:03:26;99535.63;;;9.53;91.73
15382;BME280;7789;51.364;12.358;2023-01-08T03:08:38;99534.09;;;9.60;91.15
15382;BME280;7789;51.364;12.358;2023-01-08T03:13:50;99535.34;;;9.65;90.53
15382;BME280;7789;51.364;12.358;2023-01-08T03:19:10;99531.63;;;9.68;89.96
15382;BME280;7789;51.364;12.358;2023-01-08T03:24:21;99538.22;;;9.72;90.40
15382;BME280;7789;51.364;12.358;2023-01-08T03:29:38;99549.75;;;9.79;90.09
15382;BME280;7789;51.364;12.358;2023-01-08T03:34:45;99543.81;;;9.86;89.64
15382;BME280;7789;51.364;12.358;2023-01-08T03:39:58;99517.28;;;9.91;89.69
15382;BME280;7789;51.364;12.358;2023-01-08T03:45:10;99514.13;;;9.97;88.80
15382;BME280;7789;51.364;12.358;2023-01-08T03:50:21;99513.41;;;9.95;88.39
15382;BME280;7789;51.364;12.358;2023-01-08T03:55:31;99520.19;;;9.88;88.71
15382;BME280;7789;51.364;12.358;2023-01-08T04:00:39;99513.75;;;9.82;88.63
15382;BME280;7789;51.364;12.358;2023-01-08T04:05:51;99522.13;;;9.86;88.31
15382;BME280;7789;51.364;12.358;2023-01-08T04:10:57;99511.09;;;9.92;87.86
15382;BME280;7789;51.364;12.358;2023-01-08T04:16:10;99507.25;;;9.96;86.72
15382;BME280;7789;51.364;12.358;2023-01-08T04:21:25;99493.50;;;9.94;86.93
15382;BME280;7789;51.364;12.358;2023-01-08T04:26:38;99515.91;;;9.96;87.03
15382;BME280;7789;51.364;12.358;2023-01-08T04:31:48;99504.66;;;9.96;86.71
15382;BME280;7789;51.364;12.358;2023-01-08T04:37:07;99502.97;;;9.95;86.32
15382;BME280;7789;51.364;12.358;2023-01-08T04:42:13;99502.97;;;9.95;86.91
15382;BME280;7789;51.364;12.358;2023-01-08T04:47:35;99486.78;;;9.91;86.52
15382;BME280;7789;51.364;12.358;2023-01-08T04:52:50;99491.75;;;9.85;86.02
15382;BME280;7789;51.364;12.358;2023-01-08T04:58:19;99493.97;;;9.80;86.75
15382;BME280;7789;51.364;12.358;2023-01-08T05:03:40;99480.63;;;9.83;86.38
15382;BME280;7789;51.364;12.358;2023-01-08T05:08:46;99480.22;;;9.87;86.45
15382;BME280;7789;51.364;12.358;2023-01-08T05:13:54;99472.41;;;9.87;85.93
15382;BME280;7789;51.364;12.358;2023-01-08T05:19:15;99465.38;;;9.88;85.97
15382;BME280;7789;51.364;12.358;2023-01-08T05:24:26;99467.00;;;9.89;86.61
15382;BME280;7789;51.364;12.358;2023-01-08T05:29:35;99456.94;;;9.94;85.73
15382;BME280;7789;51.364;12.358;2023-01-08T05:34:45;99459.44;;;9.95;85.58
15382;BME280;7789;51.364;12.358;2023-01-08T05:39:56;99442.50;;;9.99;85.93
15382;BME280;7789;51.364;12.358;2023-01-08T05:45:05;99445.13;;;9.99;86.04
15382;BME280;7789;51.364;12.358;2023-01-08T05:50:26;99444.84;;;10.02;86.87
15382;BME280;7789;51.364;12.358;2023-01-08T05:55:37;99441.13;;;10.05;85.78
15382;BME280;7789;51.364;12.358;2023-01-08T06:00:49;99435.50;;;10.09;86.38
15382;BME280;7789;51.364;12.358;2023-01-08T06:05:59;99441.25;;;10.13;86.34
15382;BME280;7789;51.364;12.358;2023-01-08T06:11:10;99446.31;;;10.14;86.26
15382;BME280;7789;51.364;12.358;2023-01-08T06:16:18;99454.69;;;10.18;86.12
15382;BME280;7789;51.364;12.358;2023-01-08T06:21:33;99450.00;;;10.21;85.71
15382;BME280;7789;51.364;12.358;2023-01-08T06:26:38;99451.66;;;10.22;85.87
15382;BME280;7789;51.364;12.358;2023-01-08T06:31:47;99446.44;;;10.22;86.05
15382;BME280;7789;51.364;12.358;2023-01-08T06:36:56;99463.88;;;10.22;86.23
15382;BME280;7789;51.364;12.358;2023-01-08T06:42:01;99459.63;;;10.21;85.69
15382;BME280;7789;51.364;12.358;2023-01-08T06:47:09;99455.59;;;10.26;86.57
15382;BME280;7789;51.364;12.358;2023-01-08T06:52:16;99449.25;;;10.29;86.45
15382;BME280;7789;51.364;12.358;2023-01-08T06:57:23;99445.16;;;10.26;87.07
15382;BME280;7789;51.364;12.358;2023-01-08T07:02:34;99464.25;;;10.27;86.51
15382;BME280;7789;51.364;12.358;2023-01-08T07:07:40;99458.06;;;10.28;87.55
15382;BME280;7789;51.364;12.358;2023-01-08T07:12:45;99439.09;;;10.26;87.01
15382;BME280;7789;51.364;12.358;2023-01-08T07:17:55;99439.94;;;10.26;87.42
15382;BME280;7789;51.364;12.358;2023-01-08T07:23:05;99433.75;;;10.27;87.52
15382;BME280;7789;51.364;12.358;2023-01-08T07:28:10;99459.88;;;10.27;88.18
15382;BME280;7789;51.364;12.358;2023-01-08T07:33:16;99445.84;;;10.28;87.71
15382;BME280;7789;51.364;12.358;2023-01-08T07:38:25;99439.22;;;10.34;87.23
15382;BME280;7789;51.364;12.358;2023-01-08T07:43:31;99420.91;;;10.34;87.14
15382;BME280;7789;51.364;12.358;2023-01-08T07:48:36;99410.16;;;10.37;87.11
15382;BME280;7789;51.364;12.358;2023-01-08T07:53:48;99394.19;;;10.40;87.40
15382;BME280;7789;51.364;12.358;2023-01-08T07:58:54;99389.94;;;10.39;87.52
15382;BME280;7789;51.364;12.358;2023-01-08T08:04:00;99402.69;;;10.42;87.61
15382;BME280;7789;51.364;12.358;2023-01-08T08:09:08;99402.69;;;10.42;87.59
15382;BME280;7789;51.364;12.358;2023-01-08T08:14:20;99413.81;;;10.44;87.89
15382;BME280;7789;51.364;12.358;2023-01-08T08:19:29;99416.66;;;10.50;87.37
15382;BME280;7789;51.364;12.358;2023-01-08T08:24:35;99428.94;;;10.50;87.24
15382;BME280;7789;51.364;12.358;2023-01-08T08:29:41;99426.16;;;10.51;87.20
15382;BME280;7789;51.364;12.358;2023-01-08T08:34:49;99437.13;;;10.55;88.21
15382;BME280;7789;51.364;12.358;2023-01-08T08:40:00;99451.00;;;10.55;88.42
15382;BME280;7789;51.364;12.358;2023-01-08T08:45:11;99454.47;;;10.56;88.65
15382;BME280;7789;51.364;12.358;2023-01-08T08:50:21;99440.41;;;10.57;88.44
15382;BME280;7789;51.364;12.358;2023-01-08T08:55:43;99438.47;;;10.59;89.89
15382;BME280;7789;51.364;12.358;2023-01-08T09:01:08;99426.69;;;10.55;89.63
15382;BME280;7789;51.364;12.358;2023-01-08T09:06:19;99429.16;;;10.56;89.09
15382;BME280;7789;51.364;12.358;2023-01-08T09:11:33;99431.06;;;10.54;89.94
15382;BME280;7789;51.364;12.358;2023-01-08T09:16:43;99425.03;;;10.54;90.76
15382;BME280;7789;51.364;12.358;2023-01-08T09:21:50;99421.47;;;10.55;90.19
15382;BME280;7789;51.364;12.358;2023-01-08T09:26:59;99420.19;;;10.59;89.95
15382;BME280;7789;51.364;12.358;2023-01-08T09:32:05;99429.97;;;10.57;90.75
15382;BME280;7789;51.364;12.358;2023-01-08T09:42:37;99423.94;;;10.56;90.93
15382;BME280;7789;51.364;12.358;2023-01-08T09:47:51;99428.63;;;10.53;90.43
15382;BME280;7789;51.364;12.358;2023-01-08T09:52:58;99420.34;;;10.57;89.87
15382;BME280;7789;51.364;12.358;2023-01-08T09:58:08;99432.13;;;10.61;90.19
15382;BME280;7789;51.364;12.358;2023-01-08T10:03:17;99421.69;;;10.61;89.67
15382;BME280;7789;51.364;12.358;2023-01-08T10:08:43;99419.97;;;10.70;89.50
15382;BME280;7789;51.364;12.358;2023-01-08T10:13:52;99400.34;;;10.66;89.60
15382;BME280;7789;51.364;12.358;2023-01-08T10:19:03;99389.59;;;10.69;89.42
15382;BME280;7789;51.364;12.358;2023-01-08T10:24:08;99388.97;;;10.75;88.57
15382;BME280;7789;51.364;12.358;2023-01-08T10:29:25;99386.22;;;10.76;89.02
15382;BME280;7789;51.364;12.358;2023-01-08T10:34:31;99378.19;;;10.78;88.52
15382;BME280;7789;51.364;12.358;2023-01-08T10:39:45;99382.31;;;10.80;87.17
15382;BME280;7789;51.364;12.358;2023-01-08T10:45:14;99376.94;;;10.82;87.03
15382;BME280;7789;51.364;12.358;2023-01-08T10:50:25;99372.53;;;10.82;86.60
15382;BME280;7789;51.364;12.358;2023-01-08T10:55:35;99362.75;;;10.84;86.46
15382;BME280;7789;51.364;12.358;2023-01-08T11:00:46;99354.91;;;10.84;86.74
15382;BME280;7789;51.364;12.358;2023-01-08T11:05:50;99359.69;;;10.89;87.09
15382;BME280;7789;51.364;12.358;2023-01-08T11:10:57;99346.25;;;10.84;85.75
15382;BME280;7789;51.364;12.358;2023-01-08T11:16:09;99330.25;;;10.87;85.68
15382;BME280;7789;51.364;12.358;2023-01-08T11:21:21;99337.94;;;10.88;86.07
15382;BME280;7789;51.364;12.358;2023-01-08T11:26:29;99328.16;;;10.90;86.17
15382;BME280;7789;51.364;12.358;2023-01-08T11:31:40;99309.69;;;10.92;86.21
15382;BME280;7789;51.364;12.358;2023-01-08T11:36:52;99302.50;;;10.94;86.01
15382;BME280;7789;51.364;12.358;2023-01-08T11:42:17;99306.16;;;11.01;84.80
15382;BME280;7789;51.364;12.358;2023-01-08T11:47:45;99306.81;;;11.02;84.50
15382;BME280;7789;51.364;12.358;2023-01-08T11:53:16;99286.88;;;11.02;85.35
15382;BME280;7789;51.364;12.358;2023-01-08T11:58:32;99278.72;;;11.04;85.12
15382;BME280;7789;51.364;12.358;2023-01-08T12:03:50;99275.13;;;11.05;84.31
15382;BME280;7789;51.364;12.358;2023-01-08T12:09:14;99269.59;;;11.08;83.81
15382;BME280;7789;51.364;12.358;2023-01-08T12:14:40;99270.09;;;11.12;84.37
15382;BME280;7789;51.364;12.358;2023-01-08T12:20:22;99271.56;;;11.14;83.60
15382;BME280;7789;51.364;12.358;2023-01-08T12:25:50;99264.41;;;11.16;84.98
15382;BME280;7789;51.364;12.358;2023-01-08T12:31:12;99271.63;;;11.22;84.37
15382;BME280;7789;51.364;12.358;2023-01-08T12:36:31;99262.34;;;11.28;85.01
15382;BME280;7789;51.364;12.358;2023-01-08T12:41:42;99254.69;;;11.34;83.95
15382;BME280;7789;51.364;12.358;2023-01-08T12:46:49;99264.00;;;11.37;84.21
15382;BME280;7789;51.364;12.358;2023-01-08T12:52:03;99260.09;;;11.41;83.95
15382;BME280;7789;51.364;12.358;2023-01-08T12:57:23;99246.69;;;11.44;84.76
15382;BME280;7789;51.364;12.358;2023-01-08T13:02:48;99234.75;;;11.41;83.85
15382;BME280;7789;51.364;12.358;2023-01-08T13:08:17;99212.16;;;11.40;84.23
15382;BME280;7789;51.364;12.358;2023-01-08T13:13:39;99218.38;;;11.39;84.44
15382;BME280;7789;51.364;12.358;2023-01-08T13:18:57;99215.44;;;11.42;85.14
15382;BME280;7789;51.364;12.358;2023-01-08T13:24:28;99203.53;;;11.48;85.42
15382;BME280;7789;51.364;12.358;2023-01-08T13:29:37;99196.97;;;11.44;85.69
15382;BME280;7789;51.364;12.358;2023-01-08T13:34:46;99179.13;;;11.39;86.07
15382;BME280;7789;51.364;12.358;2023-01-08T13:39:53;99188.63;;;11.40;86.52
15382;BME280;7789;51.364;12.358;2023-01-08T13:45:10;99175.38;;;11.42;86.92
15382;BME280;7789;51.364;12.358;2023-01-08T13:50:30;99181.09;;;11.45;88.43
15382;BME280;7789;51.364;12.358;2023-01-08T13:55:42;99176.03;;;11.44;87.16
15382;BME280;7789;51.364;12.358;2023-01-08T14:00:51;99182.25;;;11.43;87.50
15382;BME280;7789;51.364;12.358;2023-01-08T14:06:05;99179.00;;;11.41;87.22
15382;BME280;7789;51.364;12.358;2023-01-08T14:11:39;99165.91;;;11.41;88.04
15382;BME280;7789;51.364;12.358;2023-01-08T14:16:49;99167.38;;;11.43;88.03
15382;BME280;7789;51.364;12.358;2023-01-08T14:21:59;99179.94;;;11.40;87.11
15382;BME280;7789;51.364;12.358;2023-01-08T14:27:19;99185.34;;;11.38;87.46
15382;BME280;7789;51.364;12.358;2023-01-08T14:32:25;99191.56;;;11.37;86.92
15382;BME280;7789;51.364;12.358;2023-01-08T14:37:33;99193.84;;;11.40;87.74
15382;BME280;7789;51.364;12.358;2023-01-08T14:43:02;99200.75;;;11.49;87.78
15382;BME280;7789;51.364;12.358;2023-01-08T14:48:18;99209.41;;;11.50;87.75
15382;BME280;7789;51.364;12.358;2023-01-08T14:53:31;99213.66;;;11.51;87.45
15382;BME280;7789;51.364;12.358;2023-01-08T14:58:44;99195.53;;;11.49;87.68
15382;BME280;7789;51.364;12.358;2023-01-08T15:04:03;99194.56;;;11.50;87.13
15382;BME280;7789;51.364;12.358;2023-01-08T15:09:20;99191.75;;;11.52;87.65
15382;BME280;7789;51.364;12.358;2023-01-08T15:14:29;99189.59;;;11.47;87.46
15382;BME280;7789;51.364;12.358;2023-01-08T15:19:40;99187.31;;;11.44;87.46
15382;BME280;7789;51.364;12.358;2023-01-08T15:24:53;99191.09;;;11.42;88.50
15382;BME280;7789;51.364;12.358;2023-01-08T15:30:05;99184.84;;;11.35;88.33
15382;BME280;7789;51.364;12.358;2023-01-08T15:35:12;99184.63;;;11.20;89.01
15382;BME280;7789;51.364;12.358;2023-01-08T15:40:20;99192.25;;;11.06;90.31
15382;BME280;7789;51.364;12.358;2023-01-08T15:45:28;99191.91;;;11.01;90.29
15382;BME280;7789;51.364;12.358;2023-01-08T15:50:37;99188.13;;;10.96;90.51
15382;BME280;7789;51.364;12.358;2023-01-08T15:55:50;99168.63;;;10.82;91.03
15382;BME280;7789;51.364;12.358;2023-01-08T16:01:00;99152.59;;;10.77;91.04
15382;BME280;7789;51.364;12.358;2023-01-08T16:06:04;99158.59;;;10.70;92.11
15382;BME280;7789;51.364;12.358;2023-01-08T16:11:09;99154.94;;;10.63;92.86
15382;BME280;7789;51.364;12.358;2023-01-08T16:16:14;99164.25;;;10.57;93.07
15382;BME280;7789;51.364;12.358;2023-01-08T16:21:19;99158.97;;;10.49;93.19
15382;BME280;7789;51.364;12.358;2023-01-08T16:26:24;99147.50;;;10.42;92.74
15382;BME280;7789;51.364;12.358;2023-01-08T16:31:30;99167.22;;;10.37;93.21
15382;BME280;7789;51.364;12.358;2023-01-08T16:36:34;99160.81;;;10.31;94.17
15382;BME280;7789;51.364;12.358;2023-01-08T16:41:39;99149.84;;;10.28;94.69
15382;BME280;7789;51.364;12.358;2023-01-08T16:46:47;99151.97;;;10.24;95.26
15382;BME280;7789;51.364;12.358;2023-01-08T16:52:04;99142.63;;;10.22;95.34
15382;BME280;7789;51.364;12.358;2023-01-08T16:57:09;99145.91;;;10.24;95.23
15382;BME280;7789;51.364;12.358;2023-01-08T17:02:17;99143.63;;;10.21;97.16
15382;BME280;7789;51.364;12.358;2023-01-08T17:07:30;99153.53;;;10.17;96.82
15382;BME280;7789;51.364;12.358;2023-01-08T17:12:45;99135.03;;;10.11;97.44
15382;BME280;7789;51.364;12.358;2023-01-08T17:17:54;99123.94;;;10.09;98.20
15382;BME280;7789;51.364;12.358;2023-01-08T17:22:59;99120.34;;;10.10;98.77
15382;BME280;7789;51.364;12.358;2023-01-08T17:28:04;99121.41;;;10.17;98.87
15382;BME280;7789;51.364;12.358;2023-01-08T17:33:11;99108.81;;;10.20;99.63
15382;BME280;7789;51.364;12.358;2023-01-08T17:38:19;99110.13;;;10.16;98.99
15382;BME280;7789;51.364;12.358;2023-01-08T17:43:24;99099.47;;;10.10;99.35
15382;BME280;7789;51.364;12.358;2023-01-08T17:48:30;99090.97;;;10.08;100.00
15382;BME280;7789;51.364;12.358;2023-01-08T17:53:34;99084.63;;;10.10;100.00
15382;BME280;7789;51.364;12.358;2023-01-08T17:58:43;99089.53;;;10.13;100.00
15382;BME280;7789;51.364;12.358;2023-01-08T18:03:48;99078.28;;;10.13;100.00
15382;BME280;7789;51.364;12.358;2023-01-08T18:08:53;99076.47;;;10.13;100.00
15382;BME280;7789;51.364;12.358;2023-01-08T18:14:00;99082.22;;;10.17;100.00
15382;BME280;7789;51.364;12.358;2023-01-08T18:19:18;99074.06;;;10.20;100.00
15382;BME280;7789;51.364;12.358;2023-01-08T18:24:24;99073.09;;;10.21;100.00
15382;BME280;7789;51.364;12.358;2023-01-08T18:29:29;99082.44;;;10.23;100.00
15382;BME280;7789;51.364;12.358;2023-01-08T18:34:42;99078.53;;;10.27;100.00
15382;BME280;7789;51.364;12.358;2023-01-08T18:39:54;99063.00;;;10.26;100.00
15382;BME280;7789;51.364;12.358;2023-01-08T18:44:59;99061.03;;;10.28;100.00
15382;BME280;7789;51.364;12.358;2023-01-08T18:50:10;99046.34;;;10.27;100.00
15382;BME280;7789;51.364;12.358;2023-01-08T18:55:14;99037.41;;;10.29;100.00
15382;BME280;7789;51.364;12.358;2023-01-08T19:00:19;99040.16;;;10.28;100.00
15382;BME280;7789;51.364;12.358;2023-01-08T19:05:28;99042.63;;;10.29;100.00
15382;BME280;7789;51.364;12.358;2023-01-08T19:10:34;99030.38;;;10.30;100.00
15382;BME280;7789;51.364;12.358;2023-01-08T19:15:39;99018.28;;;10.29;99.60
15382;BME280;7789;51.364;12.358;2023-01-08T19:20:52;99018.28;;;10.29;100.00
15382;BME280;7789;51.364;12.358;2023-01-08T19:26:03;99016.00;;;10.26;100.00
15382;BME280;7789;51.364;12.358;2023-01-08T19:31:18;99005.88;;;10.23;100.00
15382;BME280;7789;51.364;12.358;2023-01-08T19:36:25;99009.59;;;10.20;99.92
15382;BME280;7789;51.364;12.358;2023-01-08T19:41:31;98995.22;;;10.16;100.00
15382;BME280;7789;51.364;12.358;2023-01-08T19:46:52;98989.53;;;10.13;100.00
15382;BME280;7789;51.364;12.358;2023-01-08T19:52:04;98983.31;;;10.14;100.00
15382;BME280;7789;51.364;12.358;2023-01-08T19:57:19;98978.03;;;10.06;100.00
15382;BME280;7789;51.364;12.358;2023-01-08T20:02:26;98979.63;;;9.99;100.00
15382;BME280;7789;51.364;12.358;2023-01-08T20:08:00;98965.53;;;9.92;100.00
15382;BME280;7789;51.364;12.358;2023-01-08T20:13:14;98961.28;;;9.83;100.00
15382;BME280;7789;51.364;12.358;2023-01-08T20:18:25;98956.81;;;9.75;100.00
15382;BME280;7789;51.364;12.358;2023-01-08T20:23:35;98972.94;;;9.71;100.00
15382;BME280;7789;51.364;12.358;2023-01-08T20:28:41;98959.53;;;9.66;100.00
15382;BME280;7789;51.364;12.358;2023-01-08T20:33:51;98961.13;;;9.59;100.00
15382;BME280;7789;51.364;12.358;2023-01-08T20:39:06;98944.31;;;9.53;100.00
15382;BME280;7789;51.364;12.358;2023-01-08T20:44:11;98936.28;;;9.47;100.00
15382;BME280;7789;51.364;12.358;2023-01-08T20:49:15;98944.38;;;9.44;100.00
15382;BME280;7789;51.364;12.358;2023-01-08T20:54:24;98954.31;;;9.40;100.00
15382;BME280;7789;51.364;12.358;2023-01-08T20:59:30;98957.25;;;9.37;100.00
15382;BME280;7789;51.364;12.358;2023-01-08T21:04:35;98939.28;;;9.34;100.00
15382;BME280;7789;51.364;12.358;2023-01-08T21:09:46;98936.00;;;9.32;100.00
15382;BME280;7789;51.364;12.358;2023-01-08T21:14:58;98924.09;;;9.30;100.00
15382;BME280;7789;51.364;12.358;2023-01-08T21:20:09;98926.84;;;9.28;100.00
15382;BME280;7789;51.364;12.358;2023-01-08T21:25:20;98913.16;;;9.26;100.00
15382;BME280;7789;51.364;12.358;2023-01-08T21:30:26;98909.22;;;9.22;100.00
15382;BME280;7789;51.364;12.358;2023-01-08T21:35:33;98890.31;;;9.20;100.00
15382;BME280;7789;51.364;12.358;2023-01-08T21:40:44;98894.03;;;9.18;100.00
15382;BME280;7789;51.364;12.358;2023-01-08T21:45:49;98893.19;;;9.17;100.00
15382;BME280;7789;51.364;12.358;2023-01-08T21:51:00;98871.19;;;9.12;100.00
15382;BME280;7789;51.364;12.358;2023-01-08T21:56:06;98870.81;;;9.07;100.00
15382;BME280;7789;51.364;12.358;2023-01-08T22:01:11;98864.41;;;9.02;100.00
15382;BME280;7789;51.364;12.358;2023-01-08T22:06:20;98855.59;;;8.95;100.00
15382;BME280;7789;51.364;12.358;2023-01-08T22:11:26;98867.75;;;8.86;100.00
15382;BME280;7789;51.364;12.358;2023-01-08T22:16:33;98875.34;;;8.80;100.00
15382;BME280;7789;51.364;12.358;2023-01-08T22:21:37;98869.47;;;8.78;100.00
15382;BME280;7789;51.364;12.358;2023-01-08T22:26:46;98877.41;;;8.76;100.00
15382;BME280;7789;51.364;12.358;2023-01-08T22:31:53;98874.97;;;8.75;100.00
15382;BME280;7789;51.364;12.358;2023-01-08T22:37:02;98856.88;;;8.73;100.00
15382;BME280;7789;51.364;12.358;2023-01-08T22:42:37;98847.97;;;8.76;100.00
15382;BME280;7789;51.364;12.358;2023-01-08T22:48:00;98843.53;;;8.76;100.00
15382;BME280;7789;51.364;12.358;2023-01-08T22:53:13;98845.88;;;8.79;100.00
15382;BME280;7789;51.364;12.358;2023-01-08T22:58:23;98838.72;;;8.81;100.00
15382;BME280;7789;51.364;12.358;2023-01-08T23:03:37;98836.91;;;8.82;100.00
15382;BME280;7789;51.364;12.358;2023-01-08T23:08:48;98827.47;;;8.81;100.00
15382;BME280;7789;51.364;12.358;2023-01-08T23:14:00;98818.69;;;8.82;100.00
15382;BME280;7789;51.364;12.358;2023-01-08T23:19:05;98818.84;;;8.80;100.00
15382;BME280;7789;51.364;12.358;2023-01-08T23:24:13;98810.19;;;8.80;100.00
15382;BME280;7789;51.364;12.358;2023-01-08T23:29:23;98795.72;;;8.77;100.00
15382;BME280;7789;51.364;12.358;2023-01-08T23:34:32;98788.69;;;8.78;100.00
15382;BME280;7789;51.364;12.358;2023-01-08T23:39:38;98779.13;;;8.78;100.00
15382;BME280;7789;51.364;12.358;2023-01-08T23:44:49;98766.38;;;8.75;100.00
15382;BME280;7789;51.364;12.358;2023-01-08T23:49:58;98751.06;;;8.72;100.00
15382;BME280;7789;51.364;12.358;2023-01-08T23:55:06;98741.91;;;8.68;100.00
